Progresso, Brazil
Current Conditions -  °F | °C
As of 10:00 PM on Wednesday 28 Jan 2015 (Local Time) from SBPF Reporting Station
Overcast Overcast  
Wind Chill: 75°   Ceiling: 7000
Heat Index: 75°   Visibility: 6mi
Dew Point: 70°   Wind: 5mph
Humidity: 83%   Direction: 360°N
Pressure: 29.88"   Gusts: NA
Location:  29.24°S, 52.31°W
Report Text: SBPF 290000Z 36004KT 9999 FEW030 SCT045 OVC070 24/21 Q1012
Loading
Personal Weather Stations






























Interactive Weather Map New forecast layout! Learn more

10-Day Weather Forecast

Advertisements
Track Severe Weather on mobile